sensor_id;sensor_type;location;lat;lon;timestamp;P1;durP1;ratioP1;P2;durP2;ratioP2
24030;SDS011;12240;51.142;22.486;2024-01-15T00:02:53;32.00;;;11.20;;
24030;SDS011;12240;51.142;22.486;2024-01-15T00:05:19;32.40;;;11.60;;
24030;SDS011;12240;51.142;22.486;2024-01-15T00:07:45;34.50;;;13.10;;
24030;SDS011;12240;51.142;22.486;2024-01-15T00:10:11;25.30;;;11.80;;
24030;SDS011;12240;51.142;22.486;2024-01-15T00:12:37;32.20;;;12.50;;
24030;SDS011;12240;51.142;22.486;2024-01-15T00:15:03;30.50;;;11.80;;
24030;SDS011;12240;51.142;22.486;2024-01-15T00:17:30;34.70;;;13.40;;
24030;SDS011;12240;51.142;22.486;2024-01-15T00:19:56;33.20;;;12.80;;
24030;SDS011;12240;51.142;22.486;2024-01-15T00:22:24;24.10;;;10.00;;
24030;SDS011;12240;51.142;22.486;2024-01-15T00:24:52;32.10;;;13.00;;
24030;SDS011;12240;51.142;22.486;2024-01-15T00:27:18;27.80;;;12.00;;
24030;SDS011;12240;51.142;22.486;2024-01-15T00:29:44;39.00;;;13.30;;
24030;SDS011;12240;51.142;22.486;2024-01-15T00:32:10;36.10;;;13.20;;
24030;SDS011;12240;51.142;22.486;2024-01-15T00:34:36;31.20;;;12.60;;
24030;SDS011;12240;51.142;22.486;2024-01-15T00:37:02;34.60;;;12.70;;
24030;SDS011;12240;51.142;22.486;2024-01-15T00:39:29;31.60;;;12.50;;
24030;SDS011;12240;51.142;22.486;2024-01-15T00:41:55;29.50;;;11.80;;
24030;SDS011;12240;51.142;22.486;2024-01-15T00:44:21;35.40;;;12.90;;
24030;SDS011;12240;51.142;22.486;2024-01-15T00:46:47;28.70;;;11.90;;
24030;SDS011;12240;51.142;22.486;2024-01-15T00:49:13;32.00;;;11.90;;
24030;SDS011;12240;51.142;22.486;2024-01-15T00:51:40;31.90;;;12.20;;
24030;SDS011;12240;51.142;22.486;2024-01-15T00:54:06;29.30;;;11.60;;
24030;SDS011;12240;51.142;22.486;2024-01-15T00:56:32;29.50;;;12.80;;
24030;SDS011;12240;51.142;22.486;2024-01-15T00:58:59;30.50;;;11.80;;
24030;SDS011;12240;51.142;22.486;2024-01-15T01:01:25;29.40;;;11.60;;
24030;SDS011;12240;51.142;22.486;2024-01-15T01:03:51;30.30;;;12.00;;
24030;SDS011;12240;51.142;22.486;2024-01-15T01:06:18;27.20;;;11.70;;
24030;SDS011;12240;51.142;22.486;2024-01-15T01:08:44;33.80;;;12.30;;
24030;SDS011;12240;51.142;22.486;2024-01-15T01:11:13;30.90;;;12.50;;
24030;SDS011;12240;51.142;22.486;2024-01-15T01:13:40;31.90;;;12.30;;
24030;SDS011;12240;51.142;22.486;2024-01-15T01:16:06;30.70;;;11.70;;
24030;SDS011;12240;51.142;22.486;2024-01-15T01:18:31;23.30;;;10.10;;
24030;SDS011;12240;51.142;22.486;2024-01-15T01:20:58;27.50;;;11.30;;
24030;SDS011;12240;51.142;22.486;2024-01-15T01:23:24;29.10;;;11.60;;
24030;SDS011;12240;51.142;22.486;2024-01-15T01:25:49;29.50;;;11.70;;
24030;SDS011;12240;51.142;22.486;2024-01-15T01:28:15;31.90;;;12.30;;
24030;SDS011;12240;51.142;22.486;2024-01-15T01:30:41;26.10;;;10.10;;
24030;SDS011;12240;51.142;22.486;2024-01-15T01:33:07;29.00;;;11.60;;
24030;SDS011;12240;51.142;22.486;2024-01-15T01:35:34;27.00;;;11.80;;
24030;SDS011;12240;51.142;22.486;2024-01-15T01:37:59;22.50;;;9.60;;
24030;SDS011;12240;51.142;22.486;2024-01-15T01:40:26;30.30;;;11.10;;
24030;SDS011;12240;51.142;22.486;2024-01-15T01:42:51;25.30;;;10.80;;
24030;SDS011;12240;51.142;22.486;2024-01-15T01:45:17;25.40;;;10.80;;
24030;SDS011;12240;51.142;22.486;2024-01-15T01:47:44;27.40;;;10.50;;
24030;SDS011;12240;51.142;22.486;2024-01-15T01:50:10;32.10;;;12.70;;
24030;SDS011;12240;51.142;22.486;2024-01-15T01:52:37;29.00;;;11.80;;
24030;SDS011;12240;51.142;22.486;2024-01-15T01:55:03;29.30;;;11.30;;
24030;SDS011;12240;51.142;22.486;2024-01-15T01:57:31;26.60;;;11.50;;
24030;SDS011;12240;51.142;22.486;2024-01-15T01:59:59;31.60;;;12.10;;
24030;SDS011;12240;51.142;22.486;2024-01-15T02:02:27;25.60;;;10.00;;
24030;SDS011;12240;51.142;22.486;2024-01-15T02:04:53;32.40;;;11.10;;
24030;SDS011;12240;51.142;22.486;2024-01-15T02:07:19;27.50;;;9.80;;
24030;SDS011;12240;51.142;22.486;2024-01-15T02:09:45;29.50;;;10.30;;
24030;SDS011;12240;51.142;22.486;2024-01-15T02:12:11;31.70;;;11.00;;
24030;SDS011;12240;51.142;22.486;2024-01-15T02:14:37;26.30;;;9.70;;
24030;SDS011;12240;51.142;22.486;2024-01-15T02:17:03;28.20;;;10.10;;
24030;SDS011;12240;51.142;22.486;2024-01-15T02:19:29;24.30;;;10.10;;
24030;SDS011;12240;51.142;22.486;2024-01-15T02:21:55;23.30;;;8.80;;
24030;SDS011;12240;51.142;22.486;2024-01-15T02:24:21;25.70;;;10.10;;
24030;SDS011;12240;51.142;22.486;2024-01-15T02:26:47;28.20;;;9.70;;
24030;SDS011;12240;51.142;22.486;2024-01-15T02:29:13;26.50;;;10.20;;
24030;SDS011;12240;51.142;22.486;2024-01-15T02:31:40;20.50;;;8.70;;
24030;SDS011;12240;51.142;22.486;2024-01-15T02:34:06;26.70;;;9.50;;
24030;SDS011;12240;51.142;22.486;2024-01-15T02:36:33;23.80;;;9.70;;
24030;SDS011;12240;51.142;22.486;2024-01-15T02:38:59;25.30;;;10.00;;
24030;SDS011;12240;51.142;22.486;2024-01-15T02:41:24;23.80;;;9.00;;
24030;SDS011;12240;51.142;22.486;2024-01-15T02:43:50;23.20;;;8.70;;
24030;SDS011;12240;51.142;22.486;2024-01-15T02:46:16;20.70;;;9.60;;
24030;SDS011;12240;51.142;22.486;2024-01-15T02:48:42;20.30;;;8.40;;
24030;SDS011;12240;51.142;22.486;2024-01-15T02:51:09;20.40;;;8.60;;
24030;SDS011;12240;51.142;22.486;2024-01-15T02:53:35;23.20;;;8.90;;
24030;SDS011;12240;51.142;22.486;2024-01-15T02:56:02;27.20;;;8.90;;
24030;SDS011;12240;51.142;22.486;2024-01-15T02:58:28;26.70;;;8.80;;
24030;SDS011;12240;51.142;22.486;2024-01-15T03:03:51;23.80;;;8.30;;
24030;SDS011;12240;51.142;22.486;2024-01-15T03:06:17;19.40;;;8.10;;
24030;SDS011;12240;51.142;22.486;2024-01-15T03:08:43;19.00;;;7.90;;
24030;SDS011;12240;51.142;22.486;2024-01-15T03:11:09;23.70;;;8.50;;
24030;SDS011;12240;51.142;22.486;2024-01-15T03:13:35;17.30;;;7.30;;
24030;SDS011;12240;51.142;22.486;2024-01-15T03:16:03;20.30;;;8.60;;
24030;SDS011;12240;51.142;22.486;2024-01-15T03:18:31;18.50;;;7.80;;
24030;SDS011;12240;51.142;22.486;2024-01-15T03:20:57;20.10;;;8.20;;
24030;SDS011;12240;51.142;22.486;2024-01-15T03:23:24;18.20;;;7.60;;
24030;SDS011;12240;51.142;22.486;2024-01-15T03:25:49;18.00;;;7.30;;
24030;SDS011;12240;51.142;22.486;2024-01-15T03:28:15;17.80;;;8.10;;
24030;SDS011;12240;51.142;22.486;2024-01-15T03:30:41;15.90;;;6.60;;
24030;SDS011;12240;51.142;22.486;2024-01-15T03:33:07;20.70;;;7.80;;
24030;SDS011;12240;51.142;22.486;2024-01-15T03:35:33;17.00;;;6.40;;
24030;SDS011;12240;51.142;22.486;2024-01-15T03:37:59;17.30;;;6.70;;
24030;SDS011;12240;51.142;22.486;2024-01-15T03:40:25;17.70;;;6.40;;
24030;SDS011;12240;51.142;22.486;2024-01-15T03:42:51;18.70;;;7.40;;
24030;SDS011;12240;51.142;22.486;2024-01-15T03:45:18;15.60;;;6.30;;
24030;SDS011;12240;51.142;22.486;2024-01-15T03:47:44;16.10;;;6.20;;
24030;SDS011;12240;51.142;22.486;2024-01-15T03:50:10;21.00;;;7.50;;
24030;SDS011;12240;51.142;22.486;2024-01-15T03:52:36;17.30;;;6.30;;
24030;SDS011;12240;51.142;22.486;2024-01-15T03:55:02;15.20;;;6.10;;
24030;SDS011;12240;51.142;22.486;2024-01-15T03:57:30;16.90;;;6.60;;
24030;SDS011;12240;51.142;22.486;2024-01-15T03:59:56;14.10;;;6.10;;
24030;SDS011;12240;51.142;22.486;2024-01-15T04:02:21;14.10;;;5.70;;
24030;SDS011;12240;51.142;22.486;2024-01-15T04:04:47;16.20;;;6.10;;
24030;SDS011;12240;51.142;22.486;2024-01-15T04:07:13;18.50;;;5.90;;
24030;SDS011;12240;51.142;22.486;2024-01-15T04:09:39;16.10;;;6.50;;
24030;SDS011;12240;51.142;22.486;2024-01-15T04:12:06;16.20;;;6.20;;
24030;SDS011;12240;51.142;22.486;2024-01-15T04:14:32;13.30;;;5.50;;
24030;SDS011;12240;51.142;22.486;2024-01-15T04:16:58;14.00;;;6.00;;
24030;SDS011;12240;51.142;22.486;2024-01-15T04:19:24;13.10;;;5.40;;
24030;SDS011;12240;51.142;22.486;2024-01-15T04:21:50;15.40;;;5.60;;
24030;SDS011;12240;51.142;22.486;2024-01-15T04:24:16;12.90;;;6.00;;
24030;SDS011;12240;51.142;22.486;2024-01-15T04:26:43;15.40;;;6.10;;
24030;SDS011;12240;51.142;22.486;2024-01-15T04:29:09;13.00;;;5.20;;
24030;SDS011;12240;51.142;22.486;2024-01-15T04:31:35;13.50;;;4.90;;
24030;SDS011;12240;51.142;22.486;2024-01-15T04:34:02;11.20;;;4.70;;
24030;SDS011;12240;51.142;22.486;2024-01-15T04:36:28;11.50;;;4.70;;
24030;SDS011;12240;51.142;22.486;2024-01-15T04:38:54;11.00;;;5.10;;
24030;SDS011;12240;51.142;22.486;2024-01-15T04:41:20;11.60;;;5.00;;
24030;SDS011;12240;51.142;22.486;2024-01-15T04:43:46;13.60;;;5.20;;
24030;SDS011;12240;51.142;22.486;2024-01-15T04:46:12;12.60;;;5.50;;
24030;SDS011;12240;51.142;22.486;2024-01-15T04:48:38;12.00;;;5.00;;
24030;SDS011;12240;51.142;22.486;2024-01-15T04:51:04;11.40;;;4.50;;
24030;SDS011;12240;51.142;22.486;2024-01-15T04:53:32;12.30;;;4.70;;
24030;SDS011;12240;51.142;22.486;2024-01-15T04:56:00;9.40;;;4.30;;
24030;SDS011;12240;51.142;22.486;2024-01-15T04:58:26;11.60;;;4.80;;
24030;SDS011;12240;51.142;22.486;2024-01-15T05:00:53;11.40;;;4.80;;
24030;SDS011;12240;51.142;22.486;2024-01-15T05:03:20;12.00;;;4.80;;
24030;SDS011;12240;51.142;22.486;2024-01-15T05:05:46;12.90;;;5.00;;
24030;SDS011;12240;51.142;22.486;2024-01-15T05:08:12;12.70;;;5.30;;
24030;SDS011;12240;51.142;22.486;2024-01-15T05:10:38;12.60;;;5.10;;
24030;SDS011;12240;51.142;22.486;2024-01-15T05:13:04;11.90;;;5.20;;
24030;SDS011;12240;51.142;22.486;2024-01-15T05:15:30;13.90;;;5.30;;
24030;SDS011;12240;51.142;22.486;2024-01-15T05:17:56;10.60;;;4.40;;
24030;SDS011;12240;51.142;22.486;2024-01-15T05:20:22;15.40;;;5.60;;
24030;SDS011;12240;51.142;22.486;2024-01-15T05:22:48;10.50;;;4.50;;
24030;SDS011;12240;51.142;22.486;2024-01-15T05:25:14;11.20;;;4.90;;
24030;SDS011;12240;51.142;22.486;2024-01-15T05:27:40;12.10;;;4.80;;
24030;SDS011;12240;51.142;22.486;2024-01-15T05:30:06;11.20;;;4.50;;
24030;SDS011;12240;51.142;22.486;2024-01-15T05:32:33;9.00;;;3.80;;
24030;SDS011;12240;51.142;22.486;2024-01-15T05:34:59;10.90;;;4.60;;
24030;SDS011;12240;51.142;22.486;2024-01-15T05:37:25;10.40;;;4.70;;
24030;SDS011;12240;51.142;22.486;2024-01-15T05:39:51;11.10;;;4.40;;
24030;SDS011;12240;51.142;22.486;2024-01-15T05:42:17;13.10;;;4.00;;
24030;SDS011;12240;51.142;22.486;2024-01-15T05:44:43;10.50;;;4.50;;
24030;SDS011;12240;51.142;22.486;2024-01-15T05:47:10;9.50;;;3.70;;
24030;SDS011;12240;51.142;22.486;2024-01-15T05:49:36;8.70;;;4.00;;
24030;SDS011;12240;51.142;22.486;2024-01-15T05:52:03;9.90;;;4.10;;
24030;SDS011;12240;51.142;22.486;2024-01-15T05:54:30;10.90;;;4.10;;
24030;SDS011;12240;51.142;22.486;2024-01-15T05:56:56;9.50;;;3.70;;
24030;SDS011;12240;51.142;22.486;2024-01-15T05:59:22;10.10;;;4.30;;
24030;SDS011;12240;51.142;22.486;2024-01-15T06:01:48;12.50;;;4.30;;
24030;SDS011;12240;51.142;22.486;2024-01-15T06:04:14;14.60;;;4.50;;
24030;SDS011;12240;51.142;22.486;2024-01-15T06:06:40;10.90;;;4.10;;
24030;SDS011;12240;51.142;22.486;2024-01-15T06:09:06;10.30;;;4.30;;
24030;SDS011;12240;51.142;22.486;2024-01-15T06:11:32;9.70;;;4.40;;
24030;SDS011;12240;51.142;22.486;2024-01-15T06:13:58;9.00;;;3.80;;
24030;SDS011;12240;51.142;22.486;2024-01-15T06:16:26;13.10;;;4.20;;
24030;SDS011;12240;51.142;22.486;2024-01-15T06:18:52;12.30;;;4.50;;
24030;SDS011;12240;51.142;22.486;2024-01-15T06:21:18;9.90;;;4.10;;
24030;SDS011;12240;51.142;22.486;2024-01-15T06:23:44;11.10;;;4.30;;
24030;SDS011;12240;51.142;22.486;2024-01-15T06:26:13;8.00;;;3.70;;
24030;SDS011;12240;51.142;22.486;2024-01-15T06:28:39;9.30;;;3.90;;
24030;SDS011;12240;51.142;22.486;2024-01-15T06:31:06;10.70;;;4.10;;
24030;SDS011;12240;51.142;22.486;2024-01-15T06:33:33;10.20;;;3.30;;
24030;SDS011;12240;51.142;22.486;2024-01-15T06:35:59;8.70;;;3.50;;
24030;SDS011;12240;51.142;22.486;2024-01-15T06:38:25;8.10;;;3.90;;
24030;SDS011;12240;51.142;22.486;2024-01-15T06:40:51;10.80;;;3.90;;
24030;SDS011;12240;51.142;22.486;2024-01-15T06:43:19;9.90;;;3.90;;
24030;SDS011;12240;51.142;22.486;2024-01-15T06:45:45;7.70;;;3.20;;
24030;SDS011;12240;51.142;22.486;2024-01-15T06:48:11;9.50;;;4.20;;
24030;SDS011;12240;51.142;22.486;2024-01-15T06:50:40;10.30;;;3.80;;
24030;SDS011;12240;51.142;22.486;2024-01-15T06:53:06;9.10;;;4.40;;
24030;SDS011;12240;51.142;22.486;2024-01-15T06:55:32;6.30;;;2.90;;
24030;SDS011;12240;51.142;22.486;2024-01-15T06:57:58;13.60;;;3.70;;
24030;SDS011;12240;51.142;22.486;2024-01-15T07:00:24;8.30;;;3.80;;
24030;SDS011;12240;51.142;22.486;2024-01-15T07:02:50;7.10;;;3.50;;
24030;SDS011;12240;51.142;22.486;2024-01-15T07:05:16;8.90;;;4.00;;
24030;SDS011;12240;51.142;22.486;2024-01-15T07:07:42;10.20;;;4.20;;
24030;SDS011;12240;51.142;22.486;2024-01-15T07:10:08;8.10;;;3.30;;
24030;SDS011;12240;51.142;22.486;2024-01-15T07:12:34;7.30;;;3.30;;
24030;SDS011;12240;51.142;22.486;2024-01-15T07:15:00;10.30;;;4.00;;
24030;SDS011;12240;51.142;22.486;2024-01-15T07:17:27;8.40;;;3.60;;
24030;SDS011;12240;51.142;22.486;2024-01-15T07:19:54;9.40;;;3.80;;
24030;SDS011;12240;51.142;22.486;2024-01-15T07:22:20;7.60;;;3.20;;
24030;SDS011;12240;51.142;22.486;2024-01-15T07:24:46;5.80;;;2.80;;
24030;SDS011;12240;51.142;22.486;2024-01-15T07:27:11;8.50;;;3.00;;
24030;SDS011;12240;51.142;22.486;2024-01-15T07:29:37;8.10;;;3.40;;
24030;SDS011;12240;51.142;22.486;2024-01-15T07:32:04;9.30;;;3.10;;
24030;SDS011;12240;51.142;22.486;2024-01-15T07:34:30;6.10;;;2.90;;
24030;SDS011;12240;51.142;22.486;2024-01-15T07:36:57;8.30;;;3.30;;
24030;SDS011;12240;51.142;22.486;2024-01-15T07:39:23;6.20;;;2.90;;
24030;SDS011;12240;51.142;22.486;2024-01-15T07:41:51;9.60;;;3.70;;
24030;SDS011;12240;51.142;22.486;2024-01-15T07:44:17;7.00;;;2.70;;
24030;SDS011;12240;51.142;22.486;2024-01-15T07:46:46;8.10;;;3.80;;
24030;SDS011;12240;51.142;22.486;2024-01-15T07:49:13;9.20;;;3.90;;
24030;SDS011;12240;51.142;22.486;2024-01-15T07:51:39;8.10;;;4.00;;
24030;SDS011;12240;51.142;22.486;2024-01-15T07:54:06;9.40;;;3.50;;
24030;SDS011;12240;51.142;22.486;2024-01-15T07:56:32;7.50;;;3.30;;
24030;SDS011;12240;51.142;22.486;2024-01-15T07:58:58;6.70;;;3.00;;
24030;SDS011;12240;51.142;22.486;2024-01-15T08:01:25;7.60;;;3.30;;
24030;SDS011;12240;51.142;22.486;2024-01-15T08:03:51;13.10;;;4.70;;
24030;SDS011;12240;51.142;22.486;2024-01-15T08:06:18;11.40;;;3.80;;
24030;SDS011;12240;51.142;22.486;2024-01-15T08:08:44;10.50;;;3.40;;
24030;SDS011;12240;51.142;22.486;2024-01-15T08:11:10;9.50;;;3.90;;
24030;SDS011;12240;51.142;22.486;2024-01-15T08:13:36;9.10;;;3.90;;
24030;SDS011;12240;51.142;22.486;2024-01-15T08:16:02;8.80;;;3.40;;
24030;SDS011;12240;51.142;22.486;2024-01-15T08:18:29;8.20;;;4.10;;
24030;SDS011;12240;51.142;22.486;2024-01-15T08:20:56;8.30;;;3.80;;
24030;SDS011;12240;51.142;22.486;2024-01-15T08:23:22;10.40;;;4.00;;
24030;SDS011;12240;51.142;22.486;2024-01-15T08:25:48;8.60;;;3.60;;
24030;SDS011;12240;51.142;22.486;2024-01-15T08:28:14;9.50;;;4.20;;
24030;SDS011;12240;51.142;22.486;2024-01-15T08:30:40;8.90;;;3.70;;
24030;SDS011;12240;51.142;22.486;2024-01-15T08:33:06;8.50;;;3.70;;
24030;SDS011;12240;51.142;22.486;2024-01-15T08:35:43;12.20;;;4.00;;
24030;SDS011;12240;51.142;22.486;2024-01-15T08:38:09;8.10;;;3.70;;
24030;SDS011;12240;51.142;22.486;2024-01-15T08:40:35;9.90;;;4.20;;
24030;SDS011;12240;51.142;22.486;2024-01-15T08:43:01;11.10;;;4.30;;
24030;SDS011;12240;51.142;22.486;2024-01-15T08:45:27;11.50;;;4.90;;
24030;SDS011;12240;51.142;22.486;2024-01-15T08:47:57;10.00;;;4.00;;
24030;SDS011;12240;51.142;22.486;2024-01-15T08:50:23;6.10;;;3.40;;
24030;SDS011;12240;51.142;22.486;2024-01-15T08:52:49;8.60;;;3.90;;
24030;SDS011;12240;51.142;22.486;2024-01-15T08:55:15;11.90;;;3.90;;
24030;SDS011;12240;51.142;22.486;2024-01-15T08:57:41;9.70;;;4.10;;
24030;SDS011;12240;51.142;22.486;2024-01-15T09:00:07;9.00;;;3.50;;
24030;SDS011;12240;51.142;22.486;2024-01-15T09:02:34;10.60;;;4.20;;
24030;SDS011;12240;51.142;22.486;2024-01-15T09:05:01;9.30;;;4.10;;
24030;SDS011;12240;51.142;22.486;2024-01-15T09:07:30;10.10;;;4.30;;
24030;SDS011;12240;51.142;22.486;2024-01-15T09:09:56;10.20;;;3.90;;
24030;SDS011;12240;51.142;22.486;2024-01-15T09:12:22;8.80;;;3.70;;
24030;SDS011;12240;51.142;22.486;2024-01-15T09:14:48;11.30;;;4.40;;
24030;SDS011;12240;51.142;22.486;2024-01-15T09:17:16;8.20;;;3.90;;
24030;SDS011;12240;51.142;22.486;2024-01-15T09:19:41;10.00;;;4.20;;
24030;SDS011;12240;51.142;22.486;2024-01-15T09:22:08;9.70;;;4.10;;
24030;SDS011;12240;51.142;22.486;2024-01-15T09:24:34;9.50;;;4.10;;
24030;SDS011;12240;51.142;22.486;2024-01-15T09:27:00;12.70;;;4.20;;
24030;SDS011;12240;51.142;22.486;2024-01-15T09:29:26;10.60;;;3.90;;
24030;SDS011;12240;51.142;22.486;2024-01-15T09:31:52;7.60;;;3.70;;
24030;SDS011;12240;51.142;22.486;2024-01-15T09:34:19;12.30;;;4.60;;
24030;SDS011;12240;51.142;22.486;2024-01-15T09:36:45;10.90;;;4.00;;
24030;SDS011;12240;51.142;22.486;2024-01-15T09:39:11;12.60;;;5.00;;
24030;SDS011;12240;51.142;22.486;2024-01-15T09:41:37;16.60;;;5.20;;
24030;SDS011;12240;51.142;22.486;2024-01-15T09:44:04;10.70;;;4.30;;
24030;SDS011;12240;51.142;22.486;2024-01-15T09:46:31;13.50;;;6.20;;
24030;SDS011;12240;51.142;22.486;2024-01-15T09:48:58;13.00;;;5.00;;
24030;SDS011;12240;51.142;22.486;2024-01-15T09:51:25;14.00;;;4.80;;
24030;SDS011;12240;51.142;22.486;2024-01-15T09:53:51;13.60;;;5.00;;
24030;SDS011;12240;51.142;22.486;2024-01-15T09:56:18;12.10;;;4.60;;
24030;SDS011;12240;51.142;22.486;2024-01-15T09:58:44;10.10;;;4.10;;
24030;SDS011;12240;51.142;22.486;2024-01-15T10:01:10;10.70;;;4.60;;
24030;SDS011;12240;51.142;22.486;2024-01-15T10:03:37;9.50;;;4.50;;
24030;SDS011;12240;51.142;22.486;2024-01-15T10:06:05;12.80;;;4.40;;
24030;SDS011;12240;51.142;22.486;2024-01-15T10:08:34;13.30;;;4.70;;
24030;SDS011;12240;51.142;22.486;2024-01-15T10:11:02;13.10;;;4.80;;
24030;SDS011;12240;51.142;22.486;2024-01-15T10:13:30;13.60;;;5.00;;
24030;SDS011;12240;51.142;22.486;2024-01-15T10:15:56;15.30;;;5.40;;
24030;SDS011;12240;51.142;22.486;2024-01-15T10:18:24;11.70;;;4.30;;
24030;SDS011;12240;51.142;22.486;2024-01-15T10:20:49;12.40;;;4.80;;
24030;SDS011;12240;51.142;22.486;2024-01-15T10:23:15;14.10;;;5.60;;
24030;SDS011;12240;51.142;22.486;2024-01-15T10:25:42;12.40;;;4.90;;
24030;SDS011;12240;51.142;22.486;2024-01-15T10:28:08;13.50;;;4.60;;
24030;SDS011;12240;51.142;22.486;2024-01-15T10:30:35;15.00;;;5.70;;
24030;SDS011;12240;51.142;22.486;2024-01-15T10:33:02;16.60;;;5.50;;
24030;SDS011;12240;51.142;22.486;2024-01-15T10:35:29;12.30;;;4.80;;
24030;SDS011;12240;51.142;22.486;2024-01-15T10:37:57;15.90;;;4.50;;
24030;SDS011;12240;51.142;22.486;2024-01-15T10:40:23;11.00;;;5.00;;
24030;SDS011;12240;51.142;22.486;2024-01-15T10:42:48;9.70;;;4.20;;
24030;SDS011;12240;51.142;22.486;2024-01-15T10:45:14;14.60;;;5.00;;
24030;SDS011;12240;51.142;22.486;2024-01-15T10:47:40;12.30;;;4.30;;
24030;SDS011;12240;51.142;22.486;2024-01-15T10:50:08;13.30;;;5.20;;
24030;SDS011;12240;51.142;22.486;2024-01-15T10:52:35;14.00;;;5.30;;
24030;SDS011;12240;51.142;22.486;2024-01-15T10:55:03;14.40;;;4.90;;
24030;SDS011;12240;51.142;22.486;2024-01-15T10:57:37;14.60;;;4.90;;
24030;SDS011;12240;51.142;22.486;2024-01-15T11:00:04;11.50;;;5.30;;
24030;SDS011;12240;51.142;22.486;2024-01-15T11:02:35;15.10;;;5.30;;
24030;SDS011;12240;51.142;22.486;2024-01-15T11:05:03;15.10;;;5.30;;
24030;SDS011;12240;51.142;22.486;2024-01-15T11:07:32;14.00;;;5.60;;
24030;SDS011;12240;51.142;22.486;2024-01-15T11:09:58;10.80;;;5.30;;
24030;SDS011;12240;51.142;22.486;2024-01-15T11:12:24;15.40;;;5.70;;
24030;SDS011;12240;51.142;22.486;2024-01-15T11:14:51;16.90;;;5.90;;
24030;SDS011;12240;51.142;22.486;2024-01-15T11:17:17;10.20;;;4.60;;
24030;SDS011;12240;51.142;22.486;2024-01-15T11:19:45;18.90;;;5.30;;
24030;SDS011;12240;51.142;22.486;2024-01-15T11:22:47;12.20;;;5.20;;
24030;SDS011;12240;51.142;22.486;2024-01-15T11:25:14;14.20;;;4.90;;
24030;SDS011;12240;51.142;22.486;2024-01-15T11:27:44;12.00;;;4.90;;
24030;SDS011;12240;51.142;22.486;2024-01-15T11:30:19;10.30;;;4.30;;
24030;SDS011;12240;51.142;22.486;2024-01-15T11:32:45;16.50;;;5.90;;
24030;SDS011;12240;51.142;22.486;2024-01-15T11:35:12;12.40;;;5.10;;
24030;SDS011;12240;51.142;22.486;2024-01-15T11:38:15;12.40;;;4.60;;
24030;SDS011;12240;51.142;22.486;2024-01-15T11:42:59;15.10;;;5.80;;
24030;SDS011;12240;51.142;22.486;2024-01-15T11:45:25;16.10;;;5.90;;
24030;SDS011;12240;51.142;22.486;2024-01-15T11:50:30;13.70;;;5.20;;
24030;SDS011;12240;51.142;22.486;2024-01-15T11:53:03;15.60;;;5.80;;
24030;SDS011;12240;51.142;22.486;2024-01-15T11:55:34;9.30;;;3.80;;
24030;SDS011;12240;51.142;22.486;2024-01-15T11:58:02;14.20;;;4.80;;
24030;SDS011;12240;51.142;22.486;2024-01-15T12:02:41;11.70;;;4.10;;
24030;SDS011;12240;51.142;22.486;2024-01-15T12:05:10;12.30;;;4.80;;
24030;SDS011;12240;51.142;22.486;2024-01-15T12:07:40;13.70;;;4.80;;
24030;SDS011;12240;51.142;22.486;2024-01-15T12:10:11;13.20;;;5.10;;
24030;SDS011;12240;51.142;22.486;2024-01-15T12:15:26;9.40;;;3.50;;
24030;SDS011;12240;51.142;22.486;2024-01-15T12:18:02;8.40;;;3.20;;
24030;SDS011;12240;51.142;22.486;2024-01-15T12:20:29;18.20;;;4.90;;
24030;SDS011;12240;51.142;22.486;2024-01-15T12:22:58;12.60;;;4.80;;
24030;SDS011;12240;51.142;22.486;2024-01-15T12:25:30;8.90;;;3.80;;
24030;SDS011;12240;51.142;22.486;2024-01-15T12:27:58;15.20;;;4.90;;
24030;SDS011;12240;51.142;22.486;2024-01-15T12:30:29;9.20;;;4.00;;
24030;SDS011;12240;51.142;22.486;2024-01-15T12:32:58;8.90;;;4.40;;
24030;SDS011;12240;51.142;22.486;2024-01-15T12:35:27;12.10;;;4.30;;
24030;SDS011;12240;51.142;22.486;2024-01-15T12:37:54;12.80;;;4.40;;
24030;SDS011;12240;51.142;22.486;2024-01-15T12:40:20;12.70;;;4.20;;
24030;SDS011;12240;51.142;22.486;2024-01-15T12:42:48;14.10;;;4.80;;
24030;SDS011;12240;51.142;22.486;2024-01-15T12:45:15;11.90;;;4.70;;
24030;SDS011;12240;51.142;22.486;2024-01-15T12:47:42;13.60;;;4.70;;
24030;SDS011;12240;51.142;22.486;2024-01-15T12:50:09;10.80;;;4.10;;
24030;SDS011;12240;51.142;22.486;2024-01-15T12:52:45;16.50;;;5.50;;
24030;SDS011;12240;51.142;22.486;2024-01-15T12:55:13;15.20;;;5.70;;
24030;SDS011;12240;51.142;22.486;2024-01-15T12:57:42;14.40;;;5.70;;
24030;SDS011;12240;51.142;22.486;2024-01-15T13:00:09;13.90;;;5.10;;
24030;SDS011;12240;51.142;22.486;2024-01-15T13:05:08;12.40;;;5.10;;
24030;SDS011;12240;51.142;22.486;2024-01-15T13:07:39;14.90;;;4.90;;
24030;SDS011;12240;51.142;22.486;2024-01-15T13:10:07;15.00;;;6.00;;
24030;SDS011;12240;51.142;22.486;2024-01-15T13:12:36;16.70;;;5.70;;
24030;SDS011;12240;51.142;22.486;2024-01-15T13:15:04;13.50;;;6.80;;
24030;SDS011;12240;51.142;22.486;2024-01-15T13:17:31;17.00;;;6.60;;
24030;SDS011;12240;51.142;22.486;2024-01-15T13:19:57;20.10;;;6.60;;
24030;SDS011;12240;51.142;22.486;2024-01-15T13:22:25;12.20;;;6.20;;
24030;SDS011;12240;51.142;22.486;2024-01-15T13:24:56;14.90;;;5.50;;
24030;SDS011;12240;51.142;22.486;2024-01-15T13:27:23;15.30;;;7.30;;
24030;SDS011;12240;51.142;22.486;2024-01-15T13:29:50;16.30;;;6.00;;
24030;SDS011;12240;51.142;22.486;2024-01-15T13:32:28;17.30;;;6.90;;
24030;SDS011;12240;51.142;22.486;2024-01-15T13:34:56;19.70;;;7.60;;
24030;SDS011;12240;51.142;22.486;2024-01-15T13:37:23;15.10;;;7.10;;
24030;SDS011;12240;51.142;22.486;2024-01-15T13:39:54;18.70;;;7.30;;
24030;SDS011;12240;51.142;22.486;2024-01-15T13:42:21;11.40;;;5.60;;
24030;SDS011;12240;51.142;22.486;2024-01-15T13:44:51;18.10;;;7.00;;
24030;SDS011;12240;51.142;22.486;2024-01-15T13:47:18;19.50;;;7.70;;
24030;SDS011;12240;51.142;22.486;2024-01-15T13:49:45;21.00;;;8.00;;
24030;SDS011;12240;51.142;22.486;2024-01-15T13:52:12;21.50;;;7.50;;
24030;SDS011;12240;51.142;22.486;2024-01-15T13:54:39;18.40;;;7.40;;
24030;SDS011;12240;51.142;22.486;2024-01-15T13:57:19;15.30;;;6.60;;
24030;SDS011;12240;51.142;22.486;2024-01-15T13:59:46;21.00;;;8.00;;
24030;SDS011;12240;51.142;22.486;2024-01-15T14:02:13;17.00;;;7.00;;
24030;SDS011;12240;51.142;22.486;2024-01-15T14:04:49;18.60;;;7.90;;
24030;SDS011;12240;51.142;22.486;2024-01-15T14:07:16;18.10;;;8.30;;
24030;SDS011;12240;51.142;22.486;2024-01-15T14:16:55;20.90;;;7.90;;
24030;SDS011;12240;51.142;22.486;2024-01-15T14:19:22;23.00;;;9.10;;
24030;SDS011;12240;51.142;22.486;2024-01-15T14:21:48;17.70;;;7.40;;
24030;SDS011;12240;51.142;22.486;2024-01-15T14:24:15;25.10;;;8.00;;
24030;SDS011;12240;51.142;22.486;2024-01-15T14:26:42;18.20;;;7.60;;
24030;SDS011;12240;51.142;22.486;2024-01-15T14:29:07;19.20;;;7.40;;
24030;SDS011;12240;51.142;22.486;2024-01-15T14:31:33;25.00;;;8.20;;
24030;SDS011;12240;51.142;22.486;2024-01-15T14:34:00;20.40;;;8.20;;
24030;SDS011;12240;51.142;22.486;2024-01-15T14:36:28;15.20;;;7.40;;
24030;SDS011;12240;51.142;22.486;2024-01-15T14:38:54;21.00;;;7.00;;
24030;SDS011;12240;51.142;22.486;2024-01-15T14:41:20;26.40;;;8.40;;
24030;SDS011;12240;51.142;22.486;2024-01-15T14:43:46;20.30;;;7.80;;